createdAt,value
2019-01-21T00:00:00.900Z,27.58
2019-01-21T00:01:13.613Z,26.70
2019-01-21T00:02:20.538Z,26.82
2019-01-21T00:03:27.284Z,26.85
2019-01-21T00:04:34.280Z,27.95
2019-01-21T00:05:41.271Z,25.37
2019-01-21T00:06:48.406Z,27.85
2019-01-21T00:07:55.507Z,25.27
2019-01-21T00:09:02.588Z,27.25
2019-01-21T00:10:09.538Z,29.63
2019-01-21T00:11:16.549Z,27.40
2019-01-21T00:12:23.606Z,27.58
2019-01-21T00:13:30.738Z,26.77
2019-01-21T00:14:37.599Z,26.77
2019-01-21T00:15:44.796Z,27.50
2019-01-21T00:16:51.515Z,27.90
2019-01-21T00:17:58.289Z,27.35
2019-01-21T00:19:05.063Z,27.93
2019-01-21T00:20:11.777Z,27.75
2019-01-21T00:21:18.552Z,26.00
2019-01-21T00:22:25.552Z,25.65
2019-01-21T00:23:32.456Z,27.02
2019-01-21T00:24:39.183Z,27.42
2019-01-21T00:25:45.906Z,27.90
2019-01-21T00:26:53.079Z,25.75
2019-01-21T00:27:59.820Z,25.57
2019-01-21T00:29:06.617Z,25.00
2019-01-21T00:30:13.533Z,26.15
2019-01-21T00:31:20.306Z,26.07
2019-01-21T00:32:27.633Z,25.40
2019-01-21T00:33:34.947Z,25.92
2019-01-21T00:34:41.728Z,25.75
2019-01-21T00:35:48.492Z,27.10
2019-01-21T00:36:55.268Z,26.62
2019-01-21T00:38:02.032Z,25.55
2019-01-21T00:39:09.550Z,25.88
2019-01-21T00:40:16.862Z,27.62
2019-01-21T00:41:23.761Z,29.30
2019-01-21T00:42:30.629Z,27.93
2019-01-21T00:43:37.749Z,26.05
2019-01-21T00:44:44.868Z,26.80
2019-01-21T00:45:51.882Z,25.90
2019-01-21T00:46:58.625Z,28.45
2019-01-21T00:48:05.533Z,24.90
2019-01-21T00:49:12.216Z,26.68
2019-01-21T00:50:18.896Z,27.10
2019-01-21T00:51:25.843Z,26.23
2019-01-21T00:52:32.747Z,26.33
2019-01-21T00:53:39.797Z,26.85
2019-01-21T00:54:47.161Z,26.82
2019-01-21T00:55:54.186Z,26.90
2019-01-21T00:57:00.921Z,27.37
2019-01-21T00:58:08.167Z,28.98
2019-01-21T00:59:15.028Z,27.13
2019-01-21T01:00:26.113Z,25.43
2019-01-21T01:01:33.547Z,26.68
2019-01-21T01:02:40.267Z,24.95
2019-01-21T01:03:47.402Z,27.02
2019-01-21T01:04:54.756Z,27.10
2019-01-21T01:06:01.458Z,24.43
2019-01-21T01:07:08.733Z,25.20
2019-01-21T01:08:15.443Z,25.95
2019-01-21T01:09:22.351Z,25.95
2019-01-21T01:10:29.074Z,25.80
2019-01-21T01:11:35.821Z,25.35
2019-01-21T01:12:42.773Z,25.37
2019-01-21T01:13:49.845Z,24.47
2019-01-21T01:14:56.928Z,26.62
2019-01-21T01:16:03.634Z,25.95
2019-01-21T01:17:10.975Z,25.62
2019-01-21T01:18:18.366Z,25.27
2019-01-21T01:19:25.060Z,24.50
2019-01-21T01:20:32.416Z,26.05
2019-01-21T01:21:39.537Z,25.27
2019-01-21T01:22:46.643Z,25.62
2019-01-21T01:23:55.095Z,27.65
2019-01-21T01:25:02.130Z,26.55
2019-01-21T01:26:09.175Z,25.37
2019-01-21T01:27:16.219Z,26.30
2019-01-21T01:28:22.921Z,25.17
2019-01-21T01:29:29.612Z,27.00
2019-01-21T01:30:36.410Z,25.50
2019-01-21T01:31:43.151Z,25.92
2019-01-21T01:32:50.638Z,24.30
2019-01-21T01:33:57.335Z,25.80
2019-01-21T01:35:04.030Z,25.88
2019-01-21T01:36:10.754Z,23.95
2019-01-21T01:37:17.455Z,25.70
2019-01-21T01:38:24.170Z,24.87
2019-01-21T01:39:30.845Z,25.52
2019-01-21T01:40:37.892Z,27.55
2019-01-21T01:41:44.816Z,26.17
2019-01-21T01:42:51.889Z,27.00
2019-01-21T01:43:59.015Z,26.20
2019-01-21T01:45:06.871Z,27.90
2019-01-21T01:46:13.571Z,27.70
2019-01-21T01:47:20.984Z,28.62
2019-01-21T01:48:28.787Z,28.57
2019-01-21T01:49:35.536Z,26.95
2019-01-21T01:50:42.695Z,26.90
2019-01-21T01:51:49.385Z,27.40
2019-01-21T01:52:56.603Z,27.85
2019-01-21T01:54:03.321Z,26.10
2019-01-21T01:55:11.462Z,26.85
2019-01-21T01:56:18.127Z,25.32
2019-01-21T01:57:25.179Z,28.50
2019-01-21T01:58:31.897Z,27.40
2019-01-21T01:59:38.862Z,25.10
2019-01-21T02:00:45.526Z,27.07
2019-01-21T02:01:52.270Z,26.23
2019-01-21T02:02:59.511Z,26.73
2019-01-21T02:04:06.439Z,22.90
2019-01-21T02:05:13.155Z,25.40
2019-01-21T02:06:20.156Z,28.00
2019-01-21T02:07:26.885Z,24.27
2019-01-21T02:08:33.550Z,25.30
2019-01-21T02:09:40.334Z,24.80
2019-01-21T02:10:47.546Z,25.52
2019-01-21T02:11:54.553Z,27.17
2019-01-21T02:13:02.042Z,27.50
2019-01-21T02:14:08.840Z,27.22
2019-01-21T02:15:16.376Z,26.00
2019-01-21T02:16:23.160Z,25.50
2019-01-21T02:17:29.910Z,24.00
2019-01-21T02:18:36.694Z,26.40
2019-01-21T02:19:47.765Z,26.57
2019-01-21T02:20:59.038Z,26.52
2019-01-21T02:22:23.732Z,25.27
2019-01-21T02:23:36.309Z,25.88
2019-01-21T02:24:46.046Z,25.62
2019-01-21T02:26:01.726Z,25.00
2019-01-21T02:27:29.016Z,26.00
2019-01-21T02:29:04.684Z,26.52
2019-01-21T02:30:53.351Z,24.40
2019-01-21T02:32:59.128Z,23.77
2019-01-21T02:35:03.100Z,26.02
2019-01-21T02:36:44.086Z,23.42
2019-01-21T02:38:33.764Z,23.67
2019-01-21T02:40:13.492Z,25.20
2019-01-21T02:41:51.406Z,24.72
2019-01-21T02:43:43.718Z,23.70
2019-01-21T02:45:38.047Z,24.02
2019-01-21T02:47:46.197Z,24.07
2019-01-21T02:49:53.393Z,21.50
2019-01-21T02:51:39.017Z,24.12
2019-01-21T02:53:32.267Z,22.25
2019-01-21T02:55:12.662Z,23.67
2019-01-21T02:57:12.221Z,22.75
2019-01-21T02:59:34.000Z,21.90
2019-01-21T03:01:31.257Z,22.35
2019-01-21T03:03:32.546Z,22.60
2019-01-21T03:05:16.031Z,23.25
2019-01-21T03:07:19.553Z,25.50
2019-01-21T03:09:44.457Z,23.95
2019-01-21T03:11:37.766Z,22.95
2019-01-21T03:13:08.501Z,22.42
2019-01-21T03:15:03.987Z,20.72
2019-01-21T03:17:06.992Z,21.75
2019-01-21T03:19:32.493Z,22.60
2019-01-21T03:21:59.628Z,21.55
2019-01-21T03:24:03.625Z,21.82
2019-01-21T03:26:15.006Z,21.25
2019-01-21T03:28:24.392Z,23.32
2019-01-21T03:30:25.891Z,22.70
2019-01-21T03:33:01.284Z,20.65
2019-01-21T03:35:17.278Z,21.77
2019-01-21T03:37:29.899Z,21.62
2019-01-21T03:39:44.910Z,22.10
2019-01-21T03:42:09.554Z,22.27
2019-01-21T03:43:57.380Z,22.05
2019-01-21T03:46:26.530Z,22.37
2019-01-21T03:48:16.752Z,21.35
2019-01-21T03:50:17.677Z,24.25
2019-01-21T03:52:35.466Z,24.95
2019-01-21T03:54:09.384Z,20.70
2019-01-21T03:55:19.024Z,25.08
2019-01-21T03:57:03.412Z,23.62
2019-01-21T03:59:06.848Z,23.32
2019-01-21T04:01:17.025Z,23.85
2019-01-21T04:03:24.557Z,22.07
2019-01-21T04:05:10.819Z,22.50
2019-01-21T04:06:52.844Z,22.65
2019-01-21T04:08:53.599Z,24.32
2019-01-21T04:11:13.828Z,23.65
2019-01-21T04:13:19.855Z,21.90
2019-01-21T04:15:30.064Z,23.62
2019-01-21T04:17:15.955Z,22.37
2019-01-21T04:19:10.000Z,23.87
2019-01-21T04:21:18.980Z,21.23
2019-01-21T04:23:14.896Z,21.50
2019-01-21T04:25:08.676Z,23.05
2019-01-21T04:27:23.869Z,22.25
2019-01-21T04:29:25.135Z,21.20
2019-01-21T04:31:46.521Z,22.77
2019-01-21T04:33:24.653Z,22.25
2019-01-21T04:35:19.200Z,22.67
2019-01-21T04:37:13.476Z,22.37
2019-01-21T04:39:22.690Z,21.07
2019-01-21T04:41:17.629Z,24.95
2019-01-21T04:43:29.912Z,23.15
2019-01-21T04:44:58.956Z,22.20
2019-01-21T04:46:58.625Z,24.95
2019-01-21T04:48:58.304Z,23.85
2019-01-21T04:50:46.353Z,23.27
2019-01-21T04:52:40.468Z,25.00
2019-01-21T04:54:22.433Z,26.27
2019-01-21T04:56:09.740Z,24.92
2019-01-21T04:58:11.311Z,28.05
2019-01-21T05:00:20.813Z,25.50
2019-01-21T05:02:17.537Z,25.27
2019-01-21T05:04:14.669Z,24.82
2019-01-21T05:06:40.253Z,24.35
2019-01-21T05:08:34.100Z,26.90
2019-01-21T05:10:30.235Z,23.80
2019-01-21T05:12:44.654Z,24.85
2019-01-21T05:14:31.298Z,26.60
2019-01-21T05:16:41.597Z,27.10
2019-01-21T05:18:48.748Z,24.87
2019-01-21T05:21:01.103Z,28.85
2019-01-21T05:22:37.972Z,26.52
2019-01-21T05:24:38.845Z,26.62
2019-01-21T05:27:03.392Z,27.80
2019-01-21T05:29:07.308Z,27.50
2019-01-21T05:31:04.463Z,27.70
2019-01-21T05:32:59.233Z,26.27
2019-01-21T05:35:27.608Z,28.65
2019-01-21T05:37:31.814Z,26.05
2019-01-21T05:39:08.276Z,28.27
2019-01-21T05:41:03.414Z,28.25
2019-01-21T05:42:57.384Z,27.25
2019-01-21T05:44:59.620Z,31.42
2019-01-21T05:46:49.183Z,30.65
2019-01-21T05:48:50.556Z,29.48
2019-01-21T05:51:22.785Z,27.70
2019-01-21T05:53:32.302Z,27.13
2019-01-21T05:55:33.656Z,29.25
2019-01-21T05:57:50.005Z,27.45
2019-01-21T05:59:50.491Z,27.50
2019-01-21T06:02:09.062Z,28.05
2019-01-21T06:04:15.465Z,28.65
2019-01-21T06:06:13.993Z,26.82
2019-01-21T06:08:20.977Z,29.32
2019-01-21T06:10:16.734Z,27.45
2019-01-21T06:12:18.140Z,29.80
2019-01-21T06:14:20.914Z,27.70
2019-01-21T06:16:16.481Z,31.30
2019-01-21T06:17:51.942Z,30.20
2019-01-21T06:19:47.688Z,28.52
2019-01-21T06:22:01.802Z,31.27
2019-01-21T06:23:45.599Z,30.90
2019-01-21T06:25:34.023Z,33.13
2019-01-21T06:27:40.148Z,30.43
2019-01-21T06:29:35.671Z,29.72
2019-01-21T06:31:57.819Z,29.18
2019-01-21T06:34:19.477Z,27.85
2019-01-21T06:36:18.466Z,28.07
2019-01-21T06:38:24.086Z,26.48
2019-01-21T06:40:25.788Z,28.00
2019-01-21T06:42:44.931Z,28.60
2019-01-21T06:44:49.226Z,26.90
2019-01-21T06:47:06.406Z,27.50
2019-01-21T06:48:53.976Z,32.35
2019-01-21T06:51:13.334Z,29.18
2019-01-21T06:53:23.033Z,30.85
2019-01-21T06:55:25.865Z,29.57
2019-01-21T06:57:43.891Z,31.57
2019-01-21T07:00:03.329Z,27.42
2019-01-21T07:02:05.168Z,29.55
2019-01-21T07:04:06.516Z,29.85
2019-01-21T07:06:15.017Z,28.95
2019-01-21T07:08:21.073Z,26.07
2019-01-21T07:10:09.854Z,30.48
2019-01-21T07:12:18.175Z,27.58
2019-01-21T07:14:22.873Z,27.55
2019-01-21T07:16:27.078Z,27.98
2019-01-21T07:18:48.822Z,28.00
2019-01-21T07:21:13.332Z,27.05
2019-01-21T07:22:36.877Z,26.20
2019-01-21T07:24:44.783Z,27.22
2019-01-21T07:26:33.371Z,25.90
2019-01-21T07:28:37.766Z,27.15
2019-01-21T07:30:51.039Z,28.05
2019-01-21T07:33:08.598Z,25.27
2019-01-21T07:35:27.059Z,28.75
2019-01-21T07:37:47.522Z,27.07
2019-01-21T07:39:41.503Z,25.25
2019-01-21T07:41:47.274Z,26.80
2019-01-21T07:43:35.914Z,24.77
2019-01-21T07:45:11.801Z,25.85
2019-01-21T07:47:14.977Z,28.42
2019-01-21T07:49:36.156Z,28.47
2019-01-21T07:51:27.336Z,23.60
2019-01-21T07:53:35.886Z,27.65
2019-01-21T07:55:49.278Z,26.95
2019-01-21T07:58:01.968Z,28.85
2019-01-21T08:00:03.887Z,28.10
2019-01-21T08:01:49.165Z,29.02
2019-01-21T08:04:00.544Z,28.60
2019-01-21T08:06:12.762Z,27.85
2019-01-21T08:08:13.286Z,27.73
2019-01-21T08:10:15.623Z,29.12
2019-01-21T08:11:54.451Z,27.62
2019-01-21T08:14:19.396Z,28.27
2019-01-21T08:16:32.689Z,28.30
2019-01-21T08:18:11.854Z,27.45
2019-01-21T08:20:22.952Z,30.15
2019-01-21T08:22:40.831Z,29.15
2019-01-21T08:24:40.817Z,27.58
2019-01-21T08:26:25.967Z,28.75
2019-01-21T08:28:04.716Z,28.77
2019-01-21T08:30:12.865Z,29.30
2019-01-21T08:31:59.636Z,31.52
2019-01-21T08:33:55.846Z,32.13
2019-01-21T08:35:47.035Z,29.67
2019-01-21T08:37:51.436Z,30.85
2019-01-21T08:40:01.481Z,33.10
2019-01-21T08:42:08.636Z,31.10
2019-01-21T08:44:40.036Z,32.90
2019-01-21T08:46:27.295Z,29.37
2019-01-21T08:48:29.320Z,34.05
2019-01-21T08:50:16.750Z,29.48
2019-01-21T08:52:07.355Z,32.40
2019-01-21T08:53:49.648Z,32.80
2019-01-21T08:55:49.786Z,32.80
2019-01-21T08:57:42.618Z,32.03
2019-01-21T08:59:43.503Z,33.75
2019-01-21T09:01:52.775Z,32.83
2019-01-21T09:04:04.073Z,30.52
2019-01-21T09:06:09.488Z,32.15
2019-01-21T09:08:19.840Z,32.55
2019-01-21T09:10:07.332Z,33.10
2019-01-21T09:12:07.479Z,30.57
2019-01-21T09:13:54.635Z,36.28
2019-01-21T09:15:44.855Z,33.85
2019-01-21T09:17:34.816Z,30.37
2019-01-21T09:19:19.928Z,32.70
2019-01-21T09:21:13.038Z,33.00
2019-01-21T09:22:44.659Z,32.53
2019-01-21T09:24:56.817Z,34.40
2019-01-21T09:26:23.282Z,33.80
2019-01-21T09:28:32.046Z,34.30
2019-01-21T09:30:27.748Z,35.68
2019-01-21T09:32:34.355Z,33.05
2019-01-21T09:34:23.440Z,37.05
2019-01-21T09:36:41.194Z,36.80
2019-01-21T09:38:39.643Z,35.35
2019-01-21T09:40:37.236Z,35.60
2019-01-21T09:42:47.006Z,34.80
2019-01-21T09:44:37.455Z,34.50
2019-01-21T09:46:48.662Z,34.78
2019-01-21T09:47:52.780Z,34.00
2019-01-21T09:48:57.176Z,36.85
2019-01-21T09:50:05.262Z,39.20
2019-01-21T09:51:12.291Z,38.30
2019-01-21T09:52:22.304Z,39.75
2019-01-21T09:53:29.138Z,37.38
2019-01-21T09:54:40.835Z,38.13
2019-01-21T09:55:53.205Z,36.10
2019-01-21T09:57:02.129Z,35.60
2019-01-21T09:58:10.417Z,33.38
2019-01-21T09:59:17.476Z,35.68
2019-01-21T10:00:24.947Z,37.08
2019-01-21T10:01:33.972Z,36.53
2019-01-21T10:02:50.953Z,36.75
2019-01-21T10:03:58.284Z,34.65
2019-01-21T10:05:17.318Z,38.48
2019-01-21T10:06:52.920Z,36.35
2019-01-21T10:09:16.046Z,35.78
2019-01-21T10:11:52.828Z,32.73
2019-01-21T10:14:14.261Z,33.40
2019-01-21T10:15:50.891Z,32.95
2019-01-21T10:17:32.194Z,33.18
2019-01-21T10:19:38.256Z,33.23
2019-01-21T10:21:28.579Z,35.43
2019-01-21T10:23:27.035Z,33.92
2019-01-21T10:25:22.805Z,32.78
2019-01-21T10:27:49.589Z,34.13
2019-01-21T10:29:17.148Z,31.57
2019-01-21T10:31:13.798Z,34.08
2019-01-21T10:33:24.040Z,33.42
2019-01-21T10:35:24.272Z,30.80
2019-01-21T10:37:26.326Z,30.97
2019-01-21T10:39:25.245Z,32.65
2019-01-21T10:41:06.498Z,32.55
2019-01-21T10:43:06.313Z,33.10
2019-01-21T10:45:05.639Z,32.42
2019-01-21T10:47:26.742Z,32.20
2019-01-21T10:49:47.556Z,32.75
2019-01-21T10:51:21.295Z,31.62
2019-01-21T10:53:24.856Z,33.38
2019-01-21T10:55:02.283Z,30.95
2019-01-21T10:56:59.673Z,33.05
2019-01-21T10:58:51.511Z,34.40
2019-01-21T11:00:41.551Z,31.23
2019-01-21T11:02:41.897Z,33.13
2019-01-21T11:04:48.001Z,32.10
2019-01-21T11:06:20.568Z,31.30
2019-01-21T11:08:41.875Z,31.40
2019-01-21T11:10:44.919Z,32.63
2019-01-21T11:12:57.140Z,31.65
2019-01-21T11:14:48.383Z,32.15
2019-01-21T11:16:34.650Z,31.37
2019-01-21T11:18:40.743Z,29.35
2019-01-21T11:20:42.734Z,30.52
2019-01-21T11:22:07.746Z,29.70
2019-01-21T11:23:55.415Z,31.15
2019-01-21T11:26:06.203Z,29.72
2019-01-21T11:27:59.965Z,30.15
2019-01-21T11:30:00.186Z,29.87
2019-01-21T11:31:49.553Z,31.27
2019-01-21T11:34:04.872Z,29.40
2019-01-21T11:36:19.926Z,27.42
2019-01-21T11:38:40.943Z,27.75
2019-01-21T11:40:30.488Z,28.77
2019-01-21T11:42:41.099Z,26.35
2019-01-21T11:44:43.497Z,28.35
2019-01-21T11:46:55.022Z,27.73
2019-01-21T11:48:50.862Z,27.25
2019-01-21T11:51:02.930Z,27.42
2019-01-21T11:52:47.738Z,26.68
2019-01-21T11:54:37.557Z,26.17
2019-01-21T11:56:37.957Z,24.72
2019-01-21T11:58:30.291Z,25.85
2019-01-21T12:00:08.226Z,26.00
2019-01-21T12:01:41.888Z,26.05
2019-01-21T12:03:41.903Z,25.30
2019-01-21T12:05:31.740Z,26.52
2019-01-21T12:07:04.825Z,25.37
2019-01-21T12:09:09.394Z,23.67
2019-01-21T12:11:13.651Z,22.60
2019-01-21T12:12:54.058Z,21.75
2019-01-21T12:14:52.989Z,22.00
2019-01-21T12:17:05.217Z,20.50
2019-01-21T12:19:09.489Z,21.35
2019-01-21T12:21:36.981Z,20.62
2019-01-21T12:23:36.616Z,20.55
2019-01-21T12:25:02.006Z,20.82
2019-01-21T12:27:00.415Z,21.90
2019-01-21T12:28:35.375Z,21.50
2019-01-21T12:30:33.163Z,20.37
2019-01-21T12:32:54.887Z,20.68
2019-01-21T12:34:19.895Z,21.07
2019-01-21T12:36:40.543Z,20.27
2019-01-21T12:38:29.141Z,19.60
2019-01-21T12:40:26.775Z,18.90
2019-01-21T12:42:13.452Z,20.57
2019-01-21T12:44:08.323Z,19.37
2019-01-21T12:46:23.271Z,20.25
2019-01-21T12:48:13.458Z,19.05
2019-01-21T12:50:38.088Z,20.55
2019-01-21T12:52:50.036Z,20.97
2019-01-21T12:54:53.890Z,19.42
2019-01-21T12:57:03.644Z,18.32
2019-01-21T12:59:23.674Z,19.17
2019-01-21T13:01:17.387Z,19.05
2019-01-21T13:03:51.259Z,17.40
2019-01-21T13:05:21.138Z,18.98
2019-01-21T13:07:34.114Z,19.87
2019-01-21T13:09:20.165Z,18.95
2019-01-21T13:11:15.697Z,20.10
2019-01-21T13:13:21.041Z,20.52
2019-01-21T13:15:18.091Z,20.55
2019-01-21T13:17:13.290Z,18.62
2019-01-21T13:19:22.218Z,18.70
2019-01-21T13:21:19.225Z,19.45
2019-01-21T13:23:17.345Z,19.00
2019-01-21T13:25:07.564Z,18.98
2019-01-21T13:27:21.427Z,18.85
2019-01-21T13:29:13.778Z,20.00
2019-01-21T13:31:12.030Z,19.25
2019-01-21T13:33:15.005Z,19.00
2019-01-21T13:35:21.505Z,17.82
2019-01-21T13:37:12.392Z,19.95
2019-01-21T13:39:09.008Z,18.15
2019-01-21T13:41:42.783Z,20.30
2019-01-21T13:43:35.362Z,20.10
2019-01-21T13:45:45.615Z,19.30
2019-01-21T13:48:01.753Z,19.32
2019-01-21T13:49:30.475Z,20.77
2019-01-21T13:51:51.970Z,22.62
2019-01-21T13:53:43.985Z,20.48
2019-01-21T13:55:52.745Z,20.27
2019-01-21T13:57:48.302Z,20.75
2019-01-21T13:59:35.543Z,20.68
2019-01-21T14:02:08.305Z,21.37
2019-01-21T14:03:58.789Z,21.20
2019-01-21T14:06:14.737Z,20.90
2019-01-21T14:08:05.010Z,21.57
2019-01-21T14:10:00.047Z,22.55
2019-01-21T14:11:54.367Z,20.65
2019-01-21T14:13:52.077Z,21.02
2019-01-21T14:15:57.146Z,21.60
2019-01-21T14:18:09.411Z,18.80
2019-01-21T14:19:54.099Z,19.87
2019-01-21T14:21:38.616Z,19.15
2019-01-21T14:23:25.403Z,20.80
2019-01-21T14:25:49.922Z,18.30
2019-01-21T14:28:04.464Z,19.17
2019-01-21T14:30:07.395Z,19.48
2019-01-21T14:32:25.983Z,19.15
2019-01-21T14:34:11.291Z,18.82
2019-01-21T14:36:02.585Z,18.30
2019-01-21T14:37:52.472Z,18.35
2019-01-21T14:39:35.152Z,16.97
2019-01-21T14:41:36.865Z,17.10
2019-01-21T14:43:51.764Z,17.62
2019-01-21T14:45:43.201Z,18.90
2019-01-21T14:47:35.567Z,19.17
2019-01-21T14:49:33.310Z,19.25
2019-01-21T14:51:58.085Z,18.70
2019-01-21T14:53:48.118Z,17.70
2019-01-21T14:55:42.048Z,16.87
2019-01-21T14:57:35.621Z,16.00
2019-01-21T14:59:28.851Z,17.80
2019-01-21T15:01:33.845Z,16.02
2019-01-21T15:03:34.134Z,17.37
2019-01-21T15:05:15.980Z,16.73
2019-01-21T15:07:12.802Z,17.70
2019-01-21T15:08:43.174Z,18.42
2019-01-21T15:10:23.346Z,17.55
2019-01-21T15:12:22.231Z,17.25
2019-01-21T15:14:30.772Z,17.70
2019-01-21T15:16:48.216Z,16.37
2019-01-21T15:18:23.184Z,18.55
2019-01-21T15:19:59.349Z,17.10
2019-01-21T15:21:18.425Z,17.17
2019-01-21T15:23:31.019Z,16.97
2019-01-21T15:25:31.755Z,17.30
2019-01-21T15:27:47.648Z,18.55
2019-01-21T15:29:40.090Z,16.73
2019-01-21T15:31:20.713Z,17.70
2019-01-21T15:33:19.393Z,17.67
2019-01-21T15:35:41.976Z,17.77
2019-01-21T15:37:25.857Z,19.17
2019-01-21T15:39:29.323Z,20.57
2019-01-21T15:41:35.361Z,20.00
2019-01-21T15:43:24.016Z,19.15
2019-01-21T15:44:53.732Z,19.02
2019-01-21T15:46:47.933Z,21.05
2019-01-21T15:48:40.184Z,21.57
2019-01-21T15:50:45.739Z,22.48
2019-01-21T15:52:34.567Z,21.02
2019-01-21T15:54:10.872Z,21.37
2019-01-21T15:55:57.443Z,22.15
2019-01-21T15:57:55.672Z,20.95
2019-01-21T16:00:07.060Z,20.12
2019-01-21T16:02:15.431Z,20.92
2019-01-21T16:04:07.373Z,21.07
2019-01-21T16:05:54.849Z,21.27
2019-01-21T16:07:53.079Z,20.45
2019-01-21T16:09:33.566Z,20.43
2019-01-21T16:11:56.522Z,20.82
2019-01-21T16:13:24.426Z,20.57
2019-01-21T16:15:18.427Z,23.75
2019-01-21T16:17:18.700Z,21.20
2019-01-21T16:19:01.654Z,21.15
2019-01-21T16:21:29.717Z,20.65
2019-01-21T16:23:31.371Z,21.27
2019-01-21T16:25:13.868Z,20.52
2019-01-21T16:26:45.990Z,21.95
2019-01-21T16:28:57.958Z,21.25
2019-01-21T16:30:50.642Z,22.42
2019-01-21T16:32:26.917Z,22.82
2019-01-21T16:34:39.266Z,22.48
2019-01-21T16:36:17.154Z,21.93
2019-01-21T16:38:21.791Z,24.07
2019-01-21T16:40:40.606Z,24.92
2019-01-21T16:42:14.894Z,25.60
2019-01-21T16:43:21.871Z,25.12
2019-01-21T16:44:28.858Z,26.80
2019-01-21T16:45:35.826Z,28.32
2019-01-21T16:46:42.534Z,27.30
2019-01-21T16:47:49.546Z,27.22
2019-01-21T16:48:56.784Z,26.70
2019-01-21T16:50:04.671Z,25.75
2019-01-21T16:51:12.204Z,25.70
2019-01-21T16:52:18.902Z,25.10
2019-01-21T16:53:25.611Z,23.73
2019-01-21T16:54:33.152Z,22.67
2019-01-21T16:55:39.976Z,22.95
2019-01-21T16:56:47.326Z,24.00
2019-01-21T16:57:54.533Z,24.07
2019-01-21T16:59:01.590Z,24.60
2019-01-21T17:00:10.133Z,24.07
2019-01-21T17:01:16.838Z,25.60
2019-01-21T17:02:23.523Z,24.47
2019-01-21T17:03:30.258Z,25.02
2019-01-21T17:04:37.414Z,22.55
2019-01-21T17:05:44.213Z,24.87
2019-01-21T17:06:51.261Z,23.87
2019-01-21T17:07:58.309Z,24.67
2019-01-21T17:09:09.625Z,26.07
2019-01-21T17:10:16.508Z,23.32
2019-01-21T17:11:23.574Z,25.12
2019-01-21T17:12:30.756Z,26.35
2019-01-21T17:13:37.958Z,27.40
2019-01-21T17:14:44.688Z,26.85
2019-01-21T17:15:51.367Z,25.95
2019-01-21T17:16:58.371Z,24.57
2019-01-21T17:18:05.328Z,25.00
2019-01-21T17:19:12.035Z,24.87
2019-01-21T17:20:22.206Z,24.65
2019-01-21T17:21:29.058Z,22.85
2019-01-21T17:22:35.723Z,23.42
2019-01-21T17:23:42.455Z,23.90
2019-01-21T17:24:49.135Z,25.27
2019-01-21T17:25:55.829Z,25.50
2019-01-21T17:27:02.910Z,24.52
2019-01-21T17:28:10.083Z,23.50
2019-01-21T17:29:20.194Z,24.15
2019-01-21T17:30:26.881Z,24.35
2019-01-21T17:31:33.917Z,24.90
2019-01-21T17:32:40.730Z,22.22
2019-01-21T17:33:47.645Z,25.00
2019-01-21T17:34:54.737Z,24.92
2019-01-21T17:36:01.844Z,24.30
2019-01-21T17:37:08.619Z,25.65
2019-01-21T17:38:15.609Z,22.48
2019-01-21T17:39:22.363Z,24.10
2019-01-21T17:40:29.615Z,25.43
2019-01-21T17:41:36.382Z,23.15
2019-01-21T17:42:43.386Z,24.32
2019-01-21T17:43:50.083Z,24.00
2019-01-21T17:44:57.083Z,22.87
2019-01-21T17:46:03.821Z,24.02
2019-01-21T17:47:10.562Z,26.20
2019-01-21T17:48:17.625Z,24.65
2019-01-21T17:49:24.291Z,25.20
2019-01-21T17:50:31.513Z,24.27
2019-01-21T17:51:38.225Z,24.57
2019-01-21T17:52:45.223Z,23.65
2019-01-21T17:53:51.945Z,24.85
2019-01-21T17:54:58.672Z,24.07
2019-01-21T17:56:05.807Z,23.98
2019-01-21T17:57:12.809Z,24.18
2019-01-21T17:58:19.485Z,22.52
2019-01-21T17:59:26.166Z,24.35
2019-01-21T18:00:34.192Z,23.07
2019-01-21T18:01:40.990Z,23.87
2019-01-21T18:02:47.666Z,22.07
2019-01-21T18:03:54.401Z,23.60
2019-01-21T18:05:01.243Z,23.12
2019-01-21T18:06:07.964Z,24.32
2019-01-21T18:07:14.985Z,25.95
2019-01-21T18:08:22.761Z,26.73
2019-01-21T18:09:29.778Z,27.10
2019-01-21T18:10:36.838Z,28.55
2019-01-21T18:11:43.633Z,27.27
2019-01-21T18:12:50.628Z,27.05
2019-01-21T18:13:57.666Z,25.23
2019-01-21T18:15:06.501Z,28.00
2019-01-21T18:16:13.591Z,27.62
2019-01-21T18:17:20.784Z,27.80
2019-01-21T18:18:27.439Z,25.80
2019-01-21T18:19:34.113Z,25.45
2019-01-21T18:20:40.802Z,27.10
2019-01-21T18:21:47.605Z,25.43
2019-01-21T18:22:54.734Z,25.27
2019-01-21T18:24:01.442Z,26.37
2019-01-21T18:25:09.900Z,26.65
2019-01-21T18:26:16.680Z,27.02
2019-01-21T18:27:23.842Z,25.72
2019-01-21T18:28:30.963Z,27.15
2019-01-21T18:29:38.275Z,26.33
2019-01-21T18:30:45.669Z,24.12
2019-01-21T18:31:52.540Z,24.87
2019-01-21T18:33:00.063Z,27.07
2019-01-21T18:34:07.371Z,24.98
2019-01-21T18:35:14.805Z,24.52
2019-01-21T18:36:21.936Z,23.87
2019-01-21T18:37:29.086Z,22.70
2019-01-21T18:38:36.024Z,22.75
2019-01-21T18:39:43.133Z,25.32
2019-01-21T18:40:50.009Z,21.77
2019-01-21T18:41:56.948Z,24.20
2019-01-21T18:43:03.993Z,22.65
2019-01-21T18:44:11.262Z,22.98
2019-01-21T18:45:22.907Z,22.48
2019-01-21T18:46:30.260Z,23.15
2019-01-21T18:47:37.508Z,22.60
2019-01-21T18:48:44.565Z,22.87
2019-01-21T18:49:51.881Z,23.18
2019-01-21T18:50:59.222Z,23.92
2019-01-21T18:52:06.491Z,23.47
2019-01-21T18:53:13.719Z,24.52
2019-01-21T18:54:20.653Z,22.95
2019-01-21T18:55:27.641Z,23.02
2019-01-21T18:56:34.402Z,24.45
2019-01-21T18:57:41.355Z,23.62
2019-01-21T18:58:48.526Z,21.73
2019-01-21T18:59:55.680Z,22.55
2019-01-21T19:01:02.377Z,21.52
2019-01-21T19:02:09.167Z,23.40
2019-01-21T19:03:16.288Z,22.15
2019-01-21T19:04:23.340Z,21.27
2019-01-21T19:05:30.179Z,23.12
2019-01-21T19:06:36.955Z,21.77
2019-01-21T19:07:43.655Z,22.98
2019-01-21T19:08:50.992Z,23.50
2019-01-21T19:09:58.090Z,22.30
2019-01-21T19:11:04.776Z,23.10
2019-01-21T19:12:11.632Z,23.83
2019-01-21T19:13:18.743Z,22.85
2019-01-21T19:14:26.330Z,23.92
2019-01-21T19:15:34.672Z,23.52
2019-01-21T19:16:42.529Z,23.18
2019-01-21T19:17:49.909Z,24.05
2019-01-21T19:18:57.146Z,23.18
2019-01-21T19:20:04.870Z,22.90
2019-01-21T19:21:12.082Z,23.60
2019-01-21T19:22:18.839Z,22.32
2019-01-21T19:23:26.239Z,22.05
2019-01-21T19:24:34.570Z,23.60
2019-01-21T19:25:42.017Z,23.25
2019-01-21T19:26:49.623Z,22.90
2019-01-21T19:27:57.074Z,21.75
2019-01-21T19:29:04.635Z,22.22
2019-01-21T19:30:16.430Z,22.30
2019-01-21T19:31:23.520Z,23.83
2019-01-21T19:32:30.982Z,22.52
2019-01-21T19:33:38.326Z,22.58
2019-01-21T19:34:45.546Z,21.70
2019-01-21T19:35:52.374Z,20.95
2019-01-21T19:36:59.652Z,21.10
2019-01-21T19:38:07.050Z,22.25
2019-01-21T19:39:13.924Z,19.17
2019-01-21T19:40:32.808Z,22.10
2019-01-21T19:41:39.992Z,21.00
2019-01-21T19:42:49.198Z,22.15
2019-01-21T19:43:56.412Z,22.62
2019-01-21T19:45:03.199Z,23.92
2019-01-21T19:46:10.215Z,21.87
2019-01-21T19:47:17.220Z,22.27
2019-01-21T19:48:23.932Z,21.65
2019-01-21T19:49:30.804Z,21.27
2019-01-21T19:50:37.620Z,22.30
2019-01-21T19:51:44.549Z,20.48
2019-01-21T19:52:51.532Z,22.13
2019-01-21T19:53:58.589Z,22.07
2019-01-21T19:55:07.454Z,22.45
2019-01-21T19:56:14.441Z,21.27
2019-01-21T19:57:21.820Z,23.15
2019-01-21T19:58:28.758Z,21.45
2019-01-21T19:59:36.399Z,20.75
2019-01-21T20:00:43.351Z,20.95
2019-01-21T20:01:50.116Z,21.40
2019-01-21T20:02:57.307Z,23.67
2019-01-21T20:04:04.251Z,22.65
2019-01-21T20:05:12.562Z,20.48
2019-01-21T20:06:19.541Z,22.15
2019-01-21T20:07:26.855Z,21.30
2019-01-21T20:08:33.912Z,20.80
2019-01-21T20:09:40.919Z,22.80
2019-01-21T20:10:48.096Z,22.60
2019-01-21T20:11:55.441Z,23.12
2019-01-21T20:13:02.734Z,22.55
2019-01-21T20:14:10.178Z,23.65
2019-01-21T20:15:18.427Z,21.55
2019-01-21T20:16:25.790Z,22.48
2019-01-21T20:17:32.745Z,22.70
2019-01-21T20:18:39.678Z,21.97
2019-01-21T20:19:47.490Z,22.13
2019-01-21T20:20:54.903Z,23.30
2019-01-21T20:22:07.270Z,22.80
2019-01-21T20:23:11.641Z,22.27
2019-01-21T20:24:18.644Z,21.60
2019-01-21T20:25:25.685Z,20.70
2019-01-21T20:26:32.466Z,22.20
2019-01-21T20:27:40.525Z,21.70
2019-01-21T20:28:47.623Z,21.40
2019-01-21T20:29:54.699Z,21.85
2019-01-21T20:31:01.764Z,20.37
2019-01-21T20:32:08.693Z,21.52